createdAt,value
2022-09-01T00:00:29.326Z,11.40
2022-09-01T00:02:57.807Z,12.70
2022-09-01T00:05:26.134Z,12.88
2022-09-01T00:07:54.520Z,13.23
2022-09-01T00:10:22.968Z,13.55
2022-09-01T00:12:51.876Z,13.63
2022-09-01T00:15:20.316Z,12.77
2022-09-01T00:17:49.470Z,13.13
2022-09-01T00:20:20.445Z,12.00
2022-09-01T00:22:49.707Z,13.80
2022-09-01T00:25:20.570Z,13.80
2022-09-01T00:27:49.518Z,12.50
2022-09-01T00:30:18.696Z,12.68
2022-09-01T00:32:47.849Z,14.30
2022-09-01T00:35:18.662Z,14.20
2022-09-01T00:37:47.033Z,12.73
2022-09-01T00:40:17.251Z,12.88
2022-09-01T00:42:45.874Z,12.77
2022-09-01T00:45:14.201Z,14.35
2022-09-01T00:47:42.931Z,13.85
2022-09-01T00:50:12.276Z,14.07
2022-09-01T00:52:46.925Z,14.55
2022-09-01T00:55:21.938Z,12.82
2022-09-01T00:57:50.222Z,14.25
2022-09-01T01:00:23.759Z,13.05
2022-09-01T01:02:56.835Z,14.23
2022-09-01T01:05:34.017Z,13.27
2022-09-01T01:08:02.855Z,14.23
2022-09-01T01:10:33.154Z,13.77
2022-09-01T01:13:04.978Z,13.20
2022-09-01T01:15:33.308Z,12.75
2022-09-01T01:18:01.838Z,11.70
2022-09-01T01:20:48.703Z,11.60
2022-09-01T01:23:22.014Z,12.13
2022-09-01T01:25:57.232Z,13.13
2022-09-01T01:28:36.315Z,13.85
2022-09-01T01:31:12.918Z,12.77
2022-09-01T01:33:44.848Z,12.77
2022-09-01T01:36:19.576Z,13.30
2022-09-01T01:38:49.020Z,12.95
2022-09-01T01:41:20.115Z,12.95
2022-09-01T01:43:48.620Z,12.73
2022-09-01T01:46:20.733Z,12.43
2022-09-01T01:48:52.677Z,12.02
2022-09-01T01:51:25.266Z,11.13
2022-09-01T01:53:53.963Z,10.40
2022-09-01T01:56:25.952Z,9.82
2022-09-01T01:58:55.737Z,11.02
2022-09-01T02:01:29.003Z,11.27
2022-09-01T02:03:59.183Z,10.77
2022-09-01T02:06:29.620Z,9.98
2022-09-01T02:09:01.835Z,11.80
2022-09-01T02:11:33.926Z,9.57
2022-09-01T02:14:03.205Z,9.98
2022-09-01T02:16:33.103Z,9.55
2022-09-01T02:19:04.801Z,10.07
2022-09-01T02:21:34.078Z,9.75
2022-09-01T02:24:05.141Z,10.48
2022-09-01T02:26:38.911Z,10.43
2022-09-01T02:29:18.223Z,11.55
2022-09-01T02:31:48.851Z,10.70
2022-09-01T02:34:17.424Z,11.73
2022-09-01T02:36:50.496Z,11.80
2022-09-01T02:39:34.796Z,11.38
2022-09-01T02:42:03.762Z,11.40
2022-09-01T02:44:36.276Z,11.35
2022-09-01T02:47:10.163Z,11.38
2022-09-01T02:49:39.054Z,11.38
2022-09-01T02:52:08.225Z,11.23
2022-09-01T02:54:36.776Z,10.67
2022-09-01T02:57:05.283Z,11.60
2022-09-01T02:59:35.108Z,10.07
2022-09-01T03:02:04.640Z,10.65
2022-09-01T03:04:35.939Z,10.23
2022-09-01T03:07:05.419Z,11.27
2022-09-01T03:09:35.344Z,9.60
2022-09-01T03:12:04.230Z,10.20
2022-09-01T03:14:33.031Z,9.88
2022-09-01T03:17:01.628Z,10.40
2022-09-01T03:19:35.586Z,10.60
2022-09-01T03:22:04.711Z,9.90
2022-09-01T03:24:34.144Z,10.10
2022-09-01T03:27:02.619Z,10.88
2022-09-01T03:29:31.456Z,10.13
2022-09-01T03:32:00.159Z,10.63
2022-09-01T03:34:29.233Z,10.63
2022-09-01T03:36:58.441Z,10.75
2022-09-01T03:39:28.441Z,9.43
2022-09-01T03:41:58.360Z,9.85
2022-09-01T03:44:27.462Z,10.48
2022-09-01T03:46:55.751Z,9.75
2022-09-01T03:49:28.149Z,10.52
2022-09-01T03:51:58.978Z,11.38
2022-09-01T03:54:30.641Z,11.05
2022-09-01T03:57:00.970Z,11.82
2022-09-01T03:59:30.688Z,11.23
2022-09-01T04:02:00.684Z,10.00
2022-09-01T04:04:33.226Z,10.43
2022-09-01T04:07:02.125Z,9.45
2022-09-01T04:09:35.198Z,9.82
2022-09-01T04:12:09.254Z,9.35
2022-09-01T04:14:40.930Z,8.60
2022-09-01T04:17:30.465Z,8.80
2022-09-01T04:19:59.525Z,8.77
2022-09-01T04:22:30.440Z,8.85
2022-09-01T04:25:00.659Z,7.72
2022-09-01T04:27:29.408Z,8.27
2022-09-01T04:29:58.096Z,8.77
2022-09-01T04:32:29.788Z,7.85
2022-09-01T04:35:02.395Z,7.22
2022-09-01T04:37:31.441Z,8.05
2022-09-01T04:40:05.406Z,6.82
2022-09-01T04:42:34.440Z,7.65
2022-09-01T04:45:10.019Z,7.20
2022-09-01T04:47:42.486Z,7.55
2022-09-01T04:50:17.953Z,7.68
2022-09-01T04:53:07.077Z,7.20
2022-09-01T04:55:55.521Z,7.78
2022-09-01T04:58:27.194Z,8.10
2022-09-01T05:00:56.225Z,8.20
2022-09-01T05:03:26.141Z,7.95
2022-09-01T05:06:18.066Z,8.13
2022-09-01T05:08:53.831Z,8.68
2022-09-01T05:11:48.993Z,9.48
2022-09-01T05:14:23.323Z,9.75
2022-09-01T05:16:59.630Z,9.73
2022-09-01T05:19:30.108Z,9.45
2022-09-01T05:22:01.098Z,9.68
2022-09-01T05:24:32.481Z,9.93
2022-09-01T05:27:07.884Z,8.98
2022-09-01T05:29:38.635Z,9.35
2022-09-01T05:32:10.698Z,9.52
2022-09-01T05:34:40.055Z,10.80
2022-09-01T05:37:09.144Z,9.68
2022-09-01T05:39:39.609Z,10.25
2022-09-01T05:42:11.201Z,10.93
2022-09-01T05:44:44.536Z,10.82
2022-09-01T05:47:20.625Z,10.35
2022-09-01T05:49:53.937Z,11.57
2022-09-01T05:52:26.613Z,11.52
2022-09-01T05:54:57.198Z,10.15
2022-09-01T05:57:35.244Z,10.63
2022-09-01T06:00:12.711Z,11.00
2022-09-01T06:02:43.270Z,10.52
2022-09-01T06:05:17.672Z,9.73
2022-09-01T06:07:47.985Z,10.27
2022-09-01T06:10:18.275Z,10.60
2022-09-01T06:12:48.858Z,10.05
2022-09-01T06:15:18.951Z,10.35
2022-09-01T06:17:52.679Z,10.35
2022-09-01T06:20:23.284Z,9.25
2022-09-01T06:22:52.921Z,11.18
2022-09-01T06:25:22.013Z,10.70
2022-09-01T06:27:52.693Z,10.52
2022-09-01T06:30:26.792Z,9.55
2022-09-01T06:33:09.571Z,10.95
2022-09-01T06:35:42.395Z,9.93
2022-09-01T06:38:12.337Z,9.75
2022-09-01T06:40:46.548Z,10.52
2022-09-01T06:43:17.562Z,10.50
2022-09-01T06:45:55.397Z,9.90
2022-09-01T06:48:25.309Z,11.77
2022-09-01T06:51:21.241Z,9.73
2022-09-01T06:53:57.251Z,10.57
2022-09-01T06:56:32.230Z,10.73
2022-09-01T06:59:06.354Z,9.95
2022-09-01T07:01:39.250Z,10.90
2022-09-01T07:04:12.855Z,11.30
2022-09-01T07:07:01.488Z,11.55
2022-09-01T07:09:49.797Z,11.07
2022-09-01T07:12:39.332Z,10.90
2022-09-01T07:17:58.521Z,9.82
2022-09-01T07:21:02.869Z,9.50
2022-09-01T07:23:46.307Z,9.77
2022-09-01T07:26:26.904Z,9.32
2022-09-01T07:29:06.334Z,8.90
2022-09-01T07:34:46.137Z,9.25
2022-09-01T07:43:23.372Z,10.63
2022-09-01T07:49:29.654Z,10.57
2022-09-01T07:51:50.812Z,10.52
2022-09-01T07:54:25.561Z,10.73
2022-09-01T07:56:55.841Z,8.90
2022-09-01T07:59:30.270Z,9.18
2022-09-01T08:02:05.888Z,9.75
2022-09-01T08:04:35.353Z,8.93
2022-09-01T08:07:05.999Z,10.43
2022-09-01T08:09:43.773Z,9.55
2022-09-01T08:12:14.232Z,10.00
2022-09-01T08:17:58.051Z,9.63
2022-09-01T08:20:31.902Z,8.73
2022-09-01T08:23:03.656Z,9.73
2022-09-01T08:25:36.825Z,9.80
2022-09-01T08:28:06.185Z,9.13
2022-09-01T08:30:35.930Z,9.85
2022-09-01T08:33:12.452Z,9.65
2022-09-01T08:35:48.488Z,9.77
2022-09-01T08:38:17.768Z,9.38
2022-09-01T08:40:56.863Z,8.93
2022-09-01T08:43:49.736Z,9.02
2022-09-01T08:46:25.670Z,8.43
2022-09-01T08:52:32.355Z,9.00
2022-09-01T08:55:13.215Z,8.07
2022-09-01T08:57:44.390Z,8.38
2022-09-01T09:00:42.304Z,8.95
2022-09-01T09:03:47.427Z,9.07
2022-09-01T09:06:22.223Z,8.90
2022-09-01T09:09:04.255Z,9.40
2022-09-01T09:11:32.735Z,9.85
2022-09-01T09:14:20.378Z,8.75
2022-09-01T09:16:51.456Z,8.10
2022-09-01T09:19:29.622Z,7.60
2022-09-01T09:22:00.993Z,6.45
2022-09-01T09:24:50.981Z,6.05
2022-09-01T09:27:28.247Z,6.25
2022-09-01T09:30:09.202Z,6.40
2022-09-01T09:35:57.741Z,5.90
2022-09-01T09:38:33.904Z,6.05
2022-09-01T09:41:17.958Z,6.07
2022-09-01T09:44:04.005Z,6.03
2022-09-01T09:46:33.079Z,6.25
2022-09-01T09:49:34.824Z,6.68
2022-09-01T09:52:21.445Z,6.57
2022-09-01T09:55:08.691Z,6.70
2022-09-01T09:57:39.936Z,6.10
2022-09-01T10:00:24.013Z,6.13
2022-09-01T10:02:58.204Z,6.35
2022-09-01T10:05:43.386Z,6.78
2022-09-01T10:08:27.293Z,6.70
2022-09-01T10:10:58.378Z,6.85
2022-09-01T10:13:33.146Z,6.47
2022-09-01T10:16:09.358Z,6.43
2022-09-01T10:18:41.593Z,6.88
2022-09-01T10:21:19.592Z,6.68
2022-09-01T10:23:49.608Z,6.20
2022-09-01T10:26:34.205Z,5.63
2022-09-01T10:29:07.365Z,6.22
2022-09-01T10:31:40.957Z,5.70
2022-09-01T10:34:13.671Z,5.75
2022-09-01T10:36:47.091Z,5.60
2022-09-01T10:39:22.211Z,5.63
2022-09-01T10:42:07.965Z,6.03
2022-09-01T10:44:56.249Z,5.50
2022-09-01T10:47:30.471Z,5.60
2022-09-01T10:50:07.666Z,5.82
2022-09-01T10:52:43.125Z,5.82
2022-09-01T10:55:33.001Z,5.60
2022-09-01T10:59:31.137Z,5.53
2022-09-01T11:04:00.773Z,5.65
2022-09-01T11:06:42.941Z,5.57
2022-09-01T11:09:24.785Z,5.05
2022-09-01T11:12:03.383Z,5.63
2022-09-01T11:14:36.147Z,5.57
2022-09-01T11:17:20.350Z,5.68
2022-09-01T11:20:09.713Z,5.38
2022-09-01T11:22:46.039Z,5.78
2022-09-01T11:25:41.297Z,5.05
2022-09-01T11:28:17.984Z,5.00
2022-09-01T11:30:56.942Z,5.30
2022-09-01T11:33:29.757Z,4.85
2022-09-01T11:36:01.961Z,5.20
2022-09-01T11:38:51.619Z,4.93
2022-09-01T11:41:32.337Z,5.57
2022-09-01T11:44:03.005Z,5.38
2022-09-01T11:46:35.050Z,5.07
2022-09-01T11:49:08.501Z,5.45
2022-09-01T11:51:46.385Z,4.70
2022-09-01T11:54:14.936Z,4.65
2022-09-01T11:56:43.761Z,5.00
2022-09-01T11:59:12.656Z,5.10
2022-09-01T12:01:41.435Z,5.03
2022-09-01T12:04:27.925Z,5.22
2022-09-01T12:07:11.225Z,5.35
2022-09-01T12:09:51.817Z,4.85
2022-09-01T12:12:33.720Z,4.57
2022-09-01T12:15:27.872Z,4.60
2022-09-01T12:18:19.707Z,4.65
2022-09-01T12:20:51.707Z,5.25
2022-09-01T12:23:41.646Z,4.47
2022-09-01T12:26:15.249Z,6.90
2022-09-01T12:28:44.213Z,5.78
2022-09-01T12:31:19.698Z,6.43
2022-09-01T12:33:48.524Z,8.18
2022-09-01T12:36:28.793Z,6.82
2022-09-01T12:38:58.703Z,5.88
2022-09-01T12:44:44.217Z,4.82
2022-09-01T12:47:15.556Z,4.38
2022-09-01T12:49:50.619Z,4.60
2022-09-01T12:52:28.313Z,4.60
2022-09-01T12:55:00.187Z,4.63
2022-09-01T12:57:31.872Z,3.85
2022-09-01T13:00:09.152Z,4.35
2022-09-01T13:02:45.365Z,4.22
2022-09-01T13:05:32.671Z,4.07
2022-09-01T13:08:11.626Z,4.25
2022-09-01T13:10:54.278Z,4.70
2022-09-01T13:13:25.463Z,4.88
2022-09-01T13:15:56.330Z,5.47
2022-09-01T13:18:28.341Z,5.22
2022-09-01T13:20:57.239Z,4.93
2022-09-01T13:23:25.901Z,5.75
2022-09-01T13:25:54.366Z,4.90
2022-09-01T13:36:47.148Z,4.95
2022-09-01T13:39:18.893Z,5.18
2022-09-01T13:41:48.433Z,5.03
2022-09-01T13:44:17.420Z,4.93
2022-09-01T13:49:43.477Z,4.93
2022-09-01T13:52:13.405Z,5.57
2022-09-01T13:54:44.627Z,5.43
2022-09-01T13:57:15.754Z,4.85
2022-09-01T13:59:44.657Z,5.20
2022-09-01T14:02:14.236Z,4.85
2022-09-01T14:04:42.668Z,4.97
2022-09-01T14:07:10.957Z,5.55
2022-09-01T14:09:39.200Z,5.13
2022-09-01T14:12:07.729Z,5.00
2022-09-01T14:17:24.367Z,5.18
2022-09-01T14:19:54.016Z,4.85
2022-09-01T14:22:22.410Z,5.13
2022-09-01T14:24:51.177Z,5.03
2022-09-01T14:27:20.431Z,4.25
2022-09-01T14:29:54.645Z,5.30
2022-09-01T14:32:27.220Z,4.25
2022-09-01T14:34:56.150Z,4.70
2022-09-01T14:37:26.148Z,5.03
2022-09-01T14:39:55.585Z,4.90
2022-09-01T14:42:25.942Z,4.85
2022-09-01T14:44:54.369Z,5.05
2022-09-01T14:47:25.022Z,5.13
2022-09-01T14:49:53.882Z,4.97
2022-09-01T14:52:22.311Z,4.70
2022-09-01T14:54:51.428Z,4.63
2022-09-01T14:57:29.377Z,4.43
2022-09-01T15:00:00.232Z,5.03
2022-09-01T15:02:29.432Z,5.05
2022-09-01T15:04:58.280Z,4.82
2022-09-01T15:07:27.992Z,4.25
2022-09-01T15:09:58.025Z,5.32
2022-09-01T15:12:31.198Z,4.97
2022-09-01T15:15:02.270Z,4.80
2022-09-01T15:17:30.662Z,4.53
2022-09-01T15:20:21.752Z,4.78
2022-09-01T15:22:50.880Z,4.82
2022-09-01T15:25:20.482Z,4.95
2022-09-01T15:27:48.967Z,5.00
2022-09-01T15:30:18.468Z,5.40
2022-09-01T15:32:48.727Z,4.43
2022-09-01T15:35:17.406Z,4.85
2022-09-01T15:37:49.651Z,4.70
2022-09-01T15:40:18.648Z,5.50
2022-09-01T15:42:47.162Z,4.72
2022-09-01T15:45:17.906Z,5.20
2022-09-01T15:47:48.631Z,5.55
2022-09-01T15:50:22.775Z,5.55
2022-09-01T15:52:59.002Z,5.00
2022-09-01T15:55:32.249Z,5.13
2022-09-01T15:58:00.802Z,7.75
2022-09-01T16:00:30.125Z,6.20
2022-09-01T16:03:02.280Z,5.70
2022-09-01T16:05:31.572Z,5.10
2022-09-01T16:08:01.722Z,5.80
2022-09-01T16:10:33.509Z,5.95
2022-09-01T16:13:03.703Z,6.03
2022-09-01T16:15:35.682Z,6.97
2022-09-01T16:18:18.139Z,6.53
2022-09-01T16:21:05.696Z,5.78
2022-09-01T16:23:44.716Z,5.80
2022-09-01T16:26:13.182Z,9.63
2022-09-01T16:28:42.971Z,6.75
2022-09-01T16:31:14.016Z,7.75
2022-09-01T16:33:48.469Z,8.10
2022-09-01T16:36:19.671Z,8.10
2022-09-01T16:38:54.155Z,8.07
2022-09-01T16:41:28.830Z,7.63
2022-09-01T16:44:08.963Z,6.68
2022-09-01T16:46:50.768Z,6.50
2022-09-01T16:50:06.265Z,6.72
2022-09-01T16:53:04.347Z,5.63
2022-09-01T16:55:59.281Z,6.55
2022-09-01T16:58:41.285Z,5.70
2022-09-01T17:01:34.518Z,6.18
2022-09-01T17:04:26.692Z,5.68
2022-09-01T17:07:00.018Z,6.10
2022-09-01T17:09:51.742Z,6.00
2022-09-01T17:12:42.607Z,6.22
2022-09-01T17:15:19.433Z,5.88
2022-09-01T17:18:22.473Z,6.38
2022-09-01T17:21:02.498Z,5.45
2022-09-01T17:23:39.121Z,6.13
2022-09-01T17:26:18.447Z,5.47
2022-09-01T17:29:14.869Z,5.60
2022-09-01T17:32:08.315Z,5.68
2022-09-01T17:35:05.993Z,5.78
2022-09-01T17:37:49.487Z,6.03
2022-09-01T17:40:23.788Z,6.25
2022-09-01T17:43:19.625Z,6.05
2022-09-01T17:46:07.340Z,6.57
2022-09-01T17:48:59.711Z,6.85
2022-09-01T17:52:27.537Z,6.10
2022-09-01T17:55:18.815Z,6.10
2022-09-01T17:57:47.852Z,5.70
2022-09-01T18:00:31.881Z,6.25
2022-09-01T18:03:22.979Z,5.82
2022-09-01T18:06:14.549Z,6.78
2022-09-01T18:08:48.837Z,6.05
2022-09-01T18:12:00.213Z,6.28
2022-09-01T18:14:39.895Z,6.30
2022-09-01T18:17:41.754Z,6.35
2022-09-01T18:20:20.310Z,6.47
2022-09-01T18:25:57.798Z,6.47
2022-09-01T18:28:29.796Z,6.20
2022-09-01T18:31:06.660Z,6.65
2022-09-01T18:34:12.582Z,5.57
2022-09-01T18:36:57.967Z,5.80
2022-09-01T18:39:50.595Z,6.28
2022-09-01T18:42:56.669Z,5.70
2022-09-01T18:48:33.976Z,5.80
2022-09-01T18:51:39.720Z,5.93
2022-09-01T18:54:20.555Z,6.03
2022-09-01T18:57:09.468Z,7.13
2022-09-01T19:00:05.994Z,6.72
2022-09-01T19:02:42.836Z,5.95
2022-09-01T19:05:49.695Z,6.47
2022-09-01T19:08:44.684Z,6.43
2022-09-01T19:11:50.437Z,6.30
2022-09-01T19:15:06.470Z,6.13
2022-09-01T19:18:01.973Z,6.78
2022-09-01T19:21:17.380Z,6.95
2022-09-01T19:24:00.663Z,6.50
2022-09-01T19:27:13.448Z,5.50
2022-09-01T19:29:54.391Z,6.03
2022-09-01T19:32:26.974Z,6.40
2022-09-01T19:35:13.305Z,6.15
2022-09-01T19:37:52.120Z,6.88
2022-09-01T19:40:37.805Z,6.63
2022-09-01T19:43:09.822Z,6.05
2022-09-01T19:46:18.363Z,6.93
2022-09-01T19:49:38.208Z,7.20
2022-09-01T19:52:21.911Z,6.43
2022-09-01T19:55:02.889Z,7.05
2022-09-01T19:57:38.202Z,7.15
2022-09-01T20:00:19.218Z,7.45
2022-09-01T20:03:14.596Z,7.00
2022-09-01T20:07:09.154Z,6.50
2022-09-01T20:09:55.412Z,6.43
2022-09-01T20:13:09.187Z,6.57
2022-09-01T20:16:09.450Z,6.25
2022-09-01T20:19:13.922Z,6.85
2022-09-01T20:21:46.655Z,6.80
2022-09-01T20:24:40.252Z,6.25
2022-09-01T20:27:35.924Z,7.03
2022-09-01T20:30:09.234Z,7.10
2022-09-01T20:32:52.022Z,7.10
2022-09-01T20:35:45.341Z,6.88
2022-09-01T20:38:57.171Z,6.55
2022-09-01T20:41:30.220Z,6.88
2022-09-01T20:44:05.484Z,6.65
2022-09-01T20:46:33.927Z,6.65
2022-09-01T20:49:02.929Z,7.20
2022-09-01T20:51:45.475Z,6.88
2022-09-01T20:54:20.657Z,7.18
2022-09-01T20:57:23.892Z,7.28
2022-09-01T20:59:59.637Z,6.97
2022-09-01T21:02:49.421Z,6.70
2022-09-01T21:05:34.070Z,6.72
2022-09-01T21:08:26.135Z,7.10
2022-09-01T21:11:14.338Z,6.22
2022-09-01T21:13:49.924Z,7.65
2022-09-01T21:16:57.450Z,6.53
2022-09-01T21:20:01.414Z,6.93
2022-09-01T21:22:30.187Z,6.93
2022-09-01T21:24:58.555Z,6.43
2022-09-01T21:27:29.165Z,6.88
2022-09-01T21:30:04.292Z,6.55
2022-09-01T21:32:33.999Z,6.40
2022-09-01T21:35:03.279Z,6.53
2022-09-01T21:37:31.900Z,6.47
2022-09-01T21:40:00.207Z,7.15
2022-09-01T21:42:36.419Z,7.45
2022-09-01T21:45:06.852Z,6.28
2022-09-01T21:47:35.262Z,5.78
2022-09-01T21:50:03.859Z,6.43
2022-09-01T21:52:32.712Z,6.70
2022-09-01T21:55:00.997Z,6.30
2022-09-01T21:57:29.311Z,7.00
2022-09-01T21:59:58.347Z,6.05
2022-09-01T22:02:28.710Z,6.90
2022-09-01T22:04:57.749Z,6.63
2022-09-01T22:07:26.287Z,6.63
2022-09-01T22:09:54.887Z,6.72
2022-09-01T22:12:23.182Z,6.85
2022-09-01T22:14:53.836Z,7.10
2022-09-01T22:17:22.402Z,6.90
2022-09-01T22:19:51.735Z,6.97
2022-09-01T22:22:20.080Z,6.38
2022-09-01T22:24:48.327Z,6.80
2022-09-01T22:27:16.643Z,6.22
2022-09-01T22:29:45.590Z,5.65
2022-09-01T22:32:14.074Z,6.90
2022-09-01T22:34:43.595Z,7.25
2022-09-01T22:37:12.322Z,6.85
2022-09-01T22:39:40.521Z,6.90
2022-09-01T22:42:08.811Z,6.35
2022-09-01T22:44:37.132Z,7.25
2022-09-01T22:47:06.514Z,7.05
2022-09-01T22:49:34.799Z,7.03
2022-09-01T22:52:03.752Z,6.90
2022-09-01T22:54:32.310Z,6.93
2022-09-01T22:57:02.476Z,6.50
2022-09-01T22:59:30.955Z,6.70
2022-09-01T23:02:02.027Z,7.13
2022-09-01T23:04:32.377Z,7.50
2022-09-01T23:07:01.308Z,6.10
2022-09-01T23:09:30.934Z,7.82
2022-09-01T23:11:59.366Z,7.57
2022-09-01T23:14:27.970Z,7.32
2022-09-01T23:16:56.423Z,7.57
2022-09-01T23:19:25.651Z,7.55
2022-09-01T23:21:54.547Z,7.90
2022-09-01T23:24:24.289Z,7.60
2022-09-01T23:26:52.732Z,7.10
2022-09-01T23:29:21.187Z,7.25
2022-09-01T23:31:49.463Z,7.43
2022-09-01T23:34:17.941Z,7.15
2022-09-01T23:36:46.317Z,7.05
2022-09-01T23:39:14.759Z,7.43
2022-09-01T23:41:43.102Z,7.20
2022-09-01T23:44:11.573Z,7.50
2022-09-01T23:46:44.839Z,7.30
2022-09-01T23:49:14.280Z,7.97
2022-09-01T23:51:44.240Z,7.60
2022-09-01T23:54:14.365Z,6.75
2022-09-01T23:56:42.635Z,7.43
2022-09-01T23:59:11.045Z,8.52
